Latest Coastal Weather Observations for Proserpine

IDQ60701

Issued at 5:15 pm EST Wednesday 16 April 2014 (issued every 10 minutes, with the page automatically refreshed every 10 minutes)

About coastal observations | Map of coastal stations | Coastal observations for QLD | Marine services | Other Formats
Station Details ID: 033247 Name: PROSERPINE AIRPORT Lat: -20.49 Lon: 148.56 Height: 19.7 m
Data from the previous 72 hours. | See also: Recent months at Proserpine
Date/Time
EST
Temp

°C
Wind Pressure Rain
since 9am
mm
Weather Cloud Vis
km
Sea
Height
m
Swell
Dir
 
Speed
knots
Gust
knots
hPa Trend Height
m
Period
s
Dir
16/05:00pm 25.5 ESE 7 10 1013.1 - 0.0 - - 10 - - - -
16/04:30pm 26.3 ESE 9 13 1012.7 - 0.0 - Partly cloudy 10 - - - -
16/04:00pm 26.6 ESE 9 12 1012.8 - 0.0 - Partly cloudy 10 - - - -
16/03:30pm 27.1 E 9 12 1012.8 - 0.0 - Partly cloudy 10 - - - -
16/03:00pm 27.9 ESE 10 14 1012.5 - 0.0 Haze Partly cloudy 16 - - - -
16/02:30pm 28.0 E 10 13 1012.8 - 0.0 - - 10 - - - -
16/02:00pm 28.0 E 9 14 1013.0 - 0.0 - - 10 - - - -
16/01:30pm 27.9 E 10 13 1013.2 - 0.0 - Partly cloudy 10 - - - -
16/01:00pm 28.1 ESE 9 13 1013.6 - 0.0 - Partly cloudy 10 - - - -
16/12:30pm 27.3 ESE 11 14 1013.8 - 0.0 - Partly cloudy 10 - - - -
16/12:00pm 28.3 ESE 9 13 1014.2 - 0.0 - Mostly clear 10 - - - -
16/11:30am 28.1 E 10 13 1014.6 - 0.0 - - 10 - - - -
16/11:00am 27.6 SE 10 13 1015.1 - 0.0 - Partly cloudy 10 - - - -
16/10:30am 27.3 SE 9 12 1015.4 - 0.0 - Partly cloudy 10 - - - -
16/10:00am 25.6 ESE 7 11 1015.6 - 0.0 - Partly cloudy 10 - - - -
16/09:30am 25.3 E 5 7 1015.8 - 0.0 - Partly cloudy 10 - - - -
16/09:00am 25.6 SSE 6 10 1015.6 - 0.0 Fine Mostly cloudy 25 - - - -
16/08:30am 25.4 SSE 5 8 1015.5 - 0.0 - - 10 - - - -
16/08:00am 24.0 S 5 7 1015.6 - 0.0 - - 10 - - - -
16/07:30am 22.3 S 3 5 1015.4 - 0.0 - - 10 - - - -
16/07:00am 21.0 SSW 1 4 1015.3 - 0.0 - - 10 - - - -
16/06:30am 20.3 S 1 4 1014.7 - 0.0 - - 10 - - - -
16/06:00am 20.4 SSW 2 3 1014.3 - 0.0 - - 10 - - - -
16/05:30am 20.6 SSW 4 5 1014.4 - 0.0 - - 10 - - - -
16/05:00am 20.7 SSW 5 6 1014.2 - 0.0 - Partly cloudy 10 - - - -
16/04:30am 20.9 SSW 6 7 1014.0 - 0.0 - - 10 - - - -
16/04:00am 21.0 SSW 5 6 1013.8 - 0.0 - Partly cloudy 10 - - - -
16/03:30am 21.2 S 6 7 1013.8 - 0.0 - - 10 - - - -
16/03:00am 21.3 SSW 4 5 1013.6 - 0.0 - Mostly clear 10 - - - -
16/02:30am 21.5 SSW 4 5 1013.7 - 0.0 - Partly cloudy 10 - - - -
16/02:00am 21.7 SSW 4 4 1013.8 - 0.0 - Partly cloudy 10 - - - -
16/01:30am 22.4 S 3 4 1013.9 - 0.0 - Partly cloudy 10 - - - -
16/01:00am 22.4 S 3 4 1014.2 - 0.0 - Partly cloudy 10 - - - -
16/12:30am 22.6 S 3 4 1014.3 - 0.0 - Partly cloudy 10 - - - -
16/12:08am 22.8 S 2 4 1014.6 - 0.0 - Partly cloudy 10 - - - -
16/12:00am 23.0 S 0 0 1014.5 - 0.0 - Cloudy 10 - - - -
 
Date/Time
EST
Temp

°C
Wind Pressure Rain
since 9am
mm
Weather Cloud Vis
km
Sea
Height
m
Swell
Dir
 
Speed
knots
Gust
knots
hPa Trend Height
m
Period
s
Dir
15/11:30pm 23.0 S 5 7 1014.5 - 0.0 - Partly cloudy 10 - - - -
15/11:00pm 23.2 S 4 6 1014.6 - 0.0 - Partly cloudy 10 - - - -
15/10:40pm 23.3 S 5 7 1014.9 - 0.0 - Partly cloudy 10 - - - -
15/10:30pm 23.4 S 5 6 1015.0 - 0.0 - Partly cloudy 10 - - - -
15/10:00pm 23.6 S 4 6 1014.9 - 0.0 - Partly cloudy 10 - - - -
15/09:30pm 23.7 S 5 6 1014.8 - 0.0 - Partly cloudy 10 - - - -
15/09:00pm 23.7 S 3 4 1014.5 - 0.0 - Mostly cloudy 10 - - - -
15/08:30pm 23.7 S 5 6 1014.5 - 0.0 - Partly cloudy 10 - - - -
15/08:00pm 23.7 SSW 5 6 1014.2 - 0.0 - Partly cloudy 10 - - - -
15/07:30pm 23.6 S 4 5 1013.8 - 0.0 - Partly cloudy 10 - - - -
15/07:00pm 23.8 S 4 6 1013.4 - 0.0 - Partly cloudy 10 - - - -
15/06:30pm 24.1 SE 5 7 1013.1 - 0.0 - Partly cloudy 10 - - - -
15/06:19pm 24.2 SE 7 8 1013.1 - 0.0 - Partly cloudy 10 - - - -
15/06:02pm 24.4 SE 7 10 1013.0 - 0.0 - Partly cloudy 10 - - - -
15/06:00pm 24.5 SE 7 10 1012.8 - 0.0 - Mostly clear 10 - - - -
15/05:30pm 25.1 ESE 8 11 1012.5 - 0.0 - - 10 - - - -
15/05:00pm 25.8 ESE 10 13 1012.3 - 0.0 - - 10 - - - -
15/04:30pm 26.5 ESE 9 14 1011.9 - 0.0 - - 10 - - - -
15/04:00pm 26.8 ESE 10 15 1011.9 - 0.0 - Partly cloudy 10 - - - -
15/03:30pm 27.3 ESE 10 13 1011.8 - 0.0 - - 10 - - - -
15/03:00pm 27.2 ESE 9 14 1011.7 - 0.0 Haze Partly cloudy 20 - - - -
15/02:30pm 27.1 E 8 12 1012.0 - 0.0 - Partly cloudy 10 - - - -
15/02:00pm 27.8 ENE 10 12 1011.9 - 0.0 - Partly cloudy 10 - - - -
15/01:30pm 27.7 ESE 9 13 1012.2 - 0.0 - - 10 - - - -
15/01:00pm 27.6 ESE 10 13 1012.6 - 0.0 - - 10 - - - -
15/12:30pm 27.0 ESE 11 15 1012.9 - 0.0 - Partly cloudy 10 - - - -
15/12:00pm 27.5 ESE 11 16 1013.2 - 0.0 - Partly cloudy 10 - - - -
15/11:30am 27.0 ESE 11 13 1013.6 - 0.0 - Partly cloudy 10 - - - -
15/11:00am 26.3 ESE 9 12 1014.2 - 0.0 - Partly cloudy 10 - - - -
15/10:30am 26.7 ESE 9 13 1014.4 - 0.0 - - 10 - - - -
15/10:00am 26.7 ESE 10 15 1014.6 - 0.0 - Partly cloudy 10 - - - -
15/09:30am 25.8 ESE 7 10 1014.8 - 0.0 - Partly cloudy 10 - - - -
15/09:00am 25.4 SSE 5 7 1014.6 - 0.0 Fine Partly cloudy 30 - - - -
15/08:30am 24.3 SE 5 7 1014.5 - 0.0 - Partly cloudy 10 - - - -
15/08:00am 22.9 CALM 0 0 1014.3 - 0.0 - - 10 - - - -
15/07:30am 21.5 S 4 5 1014.1 - 0.0 - - 10 - - - -
15/07:00am 20.3 CALM 0 0 1014.0 - 0.0 - - 10 - - - -
15/06:30am 19.6 CALM 0 0 1013.8 - 0.0 - Partly cloudy 10 - - - -
15/06:00am 19.6 SW 3 4 1013.3 - 0.0 - Mostly clear 10 - - - -
15/05:30am 19.9 CALM 0 0 1013.0 - 0.0 - - 10 - - - -
15/05:00am 19.9 SSW 3 4 1012.8 - 0.0 - - 10 - - - -
15/04:30am 19.9 SW 2 4 1012.7 - 0.0 - - 10 - - - -
15/04:00am 19.7 SW 1 4 1012.4 - 0.0 - - 10 - - - -
15/03:30am 19.9 CALM 0 0 1012.1 - 0.0 - - 10 - - - -
15/03:00am 20.1 S 1 3 1011.8 - 0.0 - - 10 - - - -
15/02:30am 20.1 S 4 5 1011.7 - 0.0 - - 10 - - - -
15/02:00am 20.3 CALM 0 0 1012.0 - 0.0 - - 10 - - - -
15/01:30am 20.6 CALM 0 0 1012.0 - 0.0 - - 10 - - - -
15/01:00am 20.6 CALM 0 0 1012.3 - 0.0 - - 10 - - - -
15/12:30am 20.9 CALM 0 1 1012.4 - 0.0 - - 10 - - - -
15/12:00am 21.1 CALM 0 0 1012.5 - 0.0 - - 10 - - - -
 
Date/Time
EST
Temp

°C
Wind Pressure Rain
since 9am
mm
Weather Cloud Vis
km
Sea
Height
m
Swell
Dir
 
Speed
knots
Gust
knots
hPa Trend Height
m
Period
s
Dir
14/11:30pm 21.4 SSW 5 7 1012.5 - 0.0 - - 10 - - - -
14/11:00pm 21.4 CALM 0 0 1012.5 - 0.0 - - 10 - - - -
14/10:30pm 21.7 CALM 0 0 1012.7 - 0.0 - - 10 - - - -
14/10:00pm 22.3 CALM 0 3 1012.8 - 0.0 - - 10 - - - -
14/09:30pm 22.4 CALM 0 3 1012.8 - 0.0 - - 10 - - - -
14/09:00pm 22.4 SSW 4 5 1012.6 - 0.0 - - 10 - - - -
14/08:30pm 22.9 SSW 3 5 1012.4 - 0.0 - - 10 - - - -
14/08:00pm 23.3 S 4 4 1011.9 - 0.0 - - 10 - - - -
14/07:30pm 23.9 S 3 4 1011.5 - 0.0 - Partly cloudy 10 - - - -
14/07:00pm 24.3 ESE 4 5 1010.9 - 0.0 - Partly cloudy 10 - - - -
14/06:30pm 24.9 E 5 6 1010.5 - 0.0 - Cloudy 10 - - - -
14/06:00pm 25.3 E 4 6 1010.0 - 0.0 - Mostly cloudy 10 - - - -
14/05:30pm 25.9 ESE 7 9 1009.7 - 0.0 - Partly cloudy 10 - - - -
14/05:00pm 26.8 ESE 8 12 1009.2 - 0.0 - - 10 - - - -
14/04:30pm 27.5 ESE 8 10 1008.9 - 0.0 - - 10 - - - -
14/04:00pm 28.0 ESE 7 10 1008.6 - 0.0 - - 10 - - - -
14/03:30pm 28.3 ENE 6 9 1008.5 - 0.0 - - 10 - - - -
14/03:00pm 28.6 NNE 4 8 1008.3 - 0.0 Fine Partly cloudy 30 - - - -
14/02:30pm 28.4 E 5 7 1008.4 - 0.0 - - 10 - - - -
14/02:00pm 28.4 NNE 4 7 1008.6 - 0.0 - - 10 - - - -
14/01:30pm 28.2 ENE 7 11 1008.6 - 0.0 - - 10 - - - -
14/01:00pm 28.0 NE 6 11 1008.8 - 0.0 - Partly cloudy 10 - - - -
14/12:30pm 27.9 NE 6 10 1009.3 - 0.0 - Partly cloudy 10 - - - -
14/12:00pm 27.4 NE 5 8 1009.5 - 0.0 - - 10 - - - -
14/11:30am 27.3 ENE 6 8 1009.9 - 0.0 - Partly cloudy 10 - - - -
14/11:00am 27.5 NE 5 8 1010.3 - 0.0 - - 10 - - - -
14/10:30am 26.7 N 3 7 1010.5 - 0.0 - - 10 - - - -
14/10:00am 26.6 N 1 5 1010.5 - 0.0 - - 10 - - - -
14/09:30am 25.7 ENE 1 4 1010.5 - 0.0 - - 10 - - - -
14/09:00am 24.7 NNE 2 3 1010.3 - 182.4 - - 10 - - - -
14/08:30am 23.8 N 4 5 1010.3 - 182.4 - - 10 - - - -
14/08:00am 22.8 N 4 5 1009.6 - 182.4 - - 10 - - - -
14/07:30am 21.8 NNW 3 5 1009.3 - 182.4 - Partly cloudy 10 - - - -
14/07:00am 20.6 N 4 6 1009.0 - 182.4 - Partly cloudy 10 - - - -
14/06:30am 20.1 CALM 0 0 1008.5 - 182.4 - Partly cloudy 10 - - - -
14/06:00am 20.2 W 1 3 1007.8 - 182.4 - Mostly cloudy 10 - - - -
14/05:30am 20.0 N 3 4 1007.6 - 182.4 - Partly cloudy 10 - - - -
14/05:00am 20.0 N 5 6 1007.3 - 182.4 - - 10 - - - -
14/04:30am 20.1 N 5 6 1007.3 - 182.4 - - 10 - - - -
14/04:00am 20.5 WNW 7 9 1007.0 - 182.4 - - 10 - - - -
14/03:30am 20.6 WNW 7 10 1006.6 - 182.4 - - 10 - - - -
14/03:00am 20.8 NW 7 9 1006.3 - 182.4 - Mostly clear 10 - - - -
14/02:30am 21.0 NNW 5 7 1006.4 - 182.4 - Partly cloudy 10 - - - -
14/02:00am 21.3 N 3 4 1006.4 - 182.4 - Partly cloudy 10 - - - -
14/01:30am 21.4 N 4 5 1006.4 - 182.4 - Partly cloudy 10 - - - -
14/01:00am 21.4 N 4 5 1006.9 - 182.4 - Partly cloudy 10 - - - -
14/12:30am 21.3 CALM 0 0 1006.8 - 182.4 - Partly cloudy 10 - - - -
14/12:00am 21.3 S 3 5 1006.7 - 182.4 - Mostly clear 10 - - - -
 
Date/Time
EST
Temp

°C
Wind Pressure Rain
since 9am
mm
Weather Cloud Vis
km
Sea
Height
m
Swell
Dir
 
Speed
knots
Gust
knots
hPa Trend Height
m
Period
s
Dir
13/11:30pm 21.3 S 3 5 1006.9 - 182.2 - Partly cloudy 10 - - - -
13/11:00pm 21.5 SW 4 5 1007.1 - 182.2 - Partly cloudy 10 - - - -
13/10:30pm 21.6 CALM 0 0 1007.2 - 182.0 - Partly cloudy 10 - - - -
13/10:07pm 21.5 SSW 4 6 1007.2 - 182.0 - Partly cloudy 10 - - - -
13/10:00pm 21.5 S 5 6 1007.1 - 181.8 - Partly cloudy 9 - - - -
13/09:45pm 21.7 S 5 7 1007.2 - 180.6 - Partly cloudy 6 - - - -
13/09:37pm 21.7 S 5 7 1007.2 - 179.8 - Partly cloudy 9 - - - -
13/09:30pm 21.7 S 5 7 1007.1 - 179.6 - Partly cloudy 8 - - - -
13/09:29pm 21.7 S 5 7 1007.1 - 179.6 - Partly cloudy 8 - - - -
13/09:14pm 21.9 S 8 12 1006.8 - 178.4 - Partly cloudy 4 - - - -
13/09:08pm 22.1 S 8 12 1006.7 - 177.4 - Partly cloudy 6 - - - -
13/09:00pm 22.5 S 10 13 1006.5 - 176.6 - Cloudy 10 - - - -
13/08:30pm 22.9 SSW 10 16 1005.2 - 176.6 - Partly cloudy 10 - - - -
13/08:00pm 22.8 S 10 14 1004.1 - 176.6 - Partly cloudy 10 - - - -
13/07:35pm 22.6 S 9 15 1002.9 - 176.6 - Partly cloudy 10 - - - -
13/07:30pm 22.4 WSW 12 19 1002.8 - 176.6 - Partly cloudy 10 - - - -
13/07:20pm 22.5 WSW 13 21 1002.7 - 176.2 - Partly cloudy 4 - - - -
13/07:00pm 22.9 S 14 18 1002.1 - 173.4 - Partly cloudy 6 - - - -
13/06:55pm 23.1 S 14 19 1002.0 - 173.2 - Partly cloudy 6 - - - -
13/06:53pm 23.1 SSW 13 19 1002.0 - 172.8 - Partly cloudy 8 - - - -
13/06:47pm 23.1 WSW 14 18 1002.0 - 172.0 - Partly cloudy 10 - - - -
13/06:30pm 23.3 SW 14 17 1001.7 - 170.8 - Partly cloudy 5 - - - -
13/06:21pm 23.7 SSW 13 16 1001.4 - 169.6 - Partly cloudy 6 - - - -
13/06:04pm 23.4 SW 15 22 1000.3 - 168.4 - Partly cloudy 10 - - - -
13/06:00pm 23.3 SW 15 22 999.7 - 168.2 - Cloudy 10 - - - -
13/05:55pm 23.3 SSW 16 25 999.4 - 168.0 - Partly cloudy 10 - - - -
13/05:50pm 23.2 ESE 15 30 997.7 - 168.0 - Partly cloudy 10 - - - -
13/05:48pm 23.2 ESE 17 31 997.1 - 168.0 - Partly cloudy 9 - - - -
13/05:30pm 23.0 E 29 39 996.9 - 166.0 - Partly cloudy 0.5 - - - -
13/05:25pm 23.0 E 26 38 997.7 - 161.8 - Partly cloudy 0.5 - - - -
13/05:19pm 23.6 E 24 35 999.6 - 156.0 - Partly cloudy 0.5 - - - -

Other Formats:

Comma delimited format used in spreadsheet applications
http://www.bom.gov.au/fwo/IDQ60701/IDQ60701.94365.axf

JavaScript Object Notation format (JSON) in row-major order
http://www.bom.gov.au/fwo/IDQ60701/IDQ60701.94365.json